createdAt,value
2018-06-12T00:01:57.272Z,8.63
2018-06-12T00:04:27.012Z,9.20
2018-06-12T00:06:56.795Z,9.73
2018-06-12T00:09:26.432Z,9.50
2018-06-12T00:11:56.154Z,9.17
2018-06-12T00:14:25.814Z,9.20
2018-06-12T00:16:55.561Z,9.50
2018-06-12T00:19:25.529Z,9.77
2018-06-12T00:21:55.197Z,10.80
2018-06-12T00:24:25.158Z,12.63
2018-06-12T00:26:54.808Z,9.20
2018-06-12T00:29:24.508Z,10.47
2018-06-12T00:31:54.417Z,9.63
2018-06-12T00:34:24.293Z,9.80
2018-06-12T00:36:54.125Z,8.33
2018-06-12T00:39:23.779Z,8.90
2018-06-12T00:41:53.540Z,8.20
2018-06-12T00:44:23.292Z,8.10
2018-06-12T00:46:53.036Z,7.70
2018-06-12T00:49:22.769Z,8.00
2018-06-12T00:51:52.426Z,8.60
2018-06-12T00:54:22.188Z,8.23
2018-06-12T00:57:02.705Z,8.07
2018-06-12T00:59:32.481Z,7.80
2018-06-12T01:02:02.117Z,7.40
2018-06-12T01:04:31.832Z,9.13
2018-06-12T01:07:01.488Z,8.90
2018-06-12T01:09:31.174Z,7.23
2018-06-12T01:12:00.943Z,7.93
2018-06-12T01:14:30.669Z,10.53
2018-06-12T01:17:00.384Z,12.40
2018-06-12T01:19:30.150Z,11.70
2018-06-12T01:21:59.972Z,9.07
2018-06-12T01:24:29.633Z,7.13
2018-06-12T01:26:59.413Z,9.70
2018-06-12T01:29:29.012Z,8.47
2018-06-12T01:31:58.797Z,6.63
2018-06-12T01:34:28.445Z,7.57
2018-06-12T01:36:58.136Z,6.10
2018-06-12T01:39:27.771Z,10.20
2018-06-12T01:41:57.483Z,7.97
2018-06-12T01:44:27.248Z,7.77
2018-06-12T01:46:57.000Z,8.23
2018-06-12T01:49:26.685Z,11.80
2018-06-12T01:51:56.273Z,9.33
2018-06-12T01:54:25.826Z,8.47
2018-06-12T01:56:55.508Z,8.90
2018-06-12T01:59:25.193Z,7.83
2018-06-12T02:01:54.841Z,7.37
2018-06-12T02:04:24.425Z,7.10
2018-06-12T02:06:54.061Z,8.63
2018-06-12T02:09:23.756Z,11.03
2018-06-12T02:11:53.538Z,6.97
2018-06-12T02:14:23.201Z,6.60
2018-06-12T02:16:52.892Z,6.80
2018-06-12T02:19:22.617Z,9.20
2018-06-12T02:21:52.437Z,13.43
2018-06-12T02:24:22.196Z,6.87
2018-06-12T02:26:51.840Z,9.13
2018-06-12T02:29:21.601Z,5.60
2018-06-12T02:31:51.272Z,10.47
2018-06-12T02:34:20.940Z,5.27
2018-06-12T02:36:50.638Z,5.00
2018-06-12T02:39:20.359Z,6.97
2018-06-12T02:41:50.049Z,6.30
2018-06-12T02:44:19.128Z,8.20
2018-06-12T02:46:48.900Z,5.20
2018-06-12T02:49:18.598Z,8.53
2018-06-12T02:51:48.300Z,5.90
2018-06-12T02:54:17.948Z,6.37
2018-06-12T02:56:47.693Z,10.33
2018-06-12T02:59:17.348Z,7.80
2018-06-12T03:01:47.117Z,5.37
2018-06-12T03:04:16.775Z,5.73
2018-06-12T03:06:46.453Z,8.70
2018-06-12T03:09:16.199Z,6.63
2018-06-12T03:11:45.896Z,6.23
2018-06-12T03:14:15.669Z,6.20
2018-06-12T03:16:45.431Z,6.33
2018-06-12T03:19:15.225Z,8.53
2018-06-12T03:21:44.952Z,5.67
2018-06-12T03:24:14.814Z,7.57
2018-06-12T03:26:44.521Z,3.60
2018-06-12T03:29:14.288Z,9.73
2018-06-12T03:31:44.048Z,5.47
2018-06-12T03:34:13.928Z,7.33
2018-06-12T03:36:43.990Z,7.70
2018-06-12T03:39:13.853Z,10.50
2018-06-12T03:41:43.600Z,12.30
2018-06-12T03:44:13.356Z,10.57
2018-06-12T03:46:43.129Z,7.20
2018-06-12T03:49:12.776Z,9.20
2018-06-12T03:51:42.497Z,6.17
2018-06-12T03:54:12.256Z,12.73
2018-06-12T03:56:41.911Z,6.30
2018-06-12T03:59:11.584Z,5.90
2018-06-12T04:01:41.212Z,6.57
2018-06-12T04:04:10.855Z,8.27
2018-06-12T04:06:40.697Z,11.13
2018-06-12T04:09:10.355Z,5.93
2018-06-12T04:11:39.927Z,7.70
2018-06-12T04:14:09.621Z,9.63
2018-06-12T04:16:39.260Z,5.00
2018-06-12T04:19:09.020Z,6.37
2018-06-12T04:21:38.692Z,10.57
2018-06-12T04:24:08.389Z,6.80
2018-06-12T04:26:37.899Z,4.30
2018-06-12T04:29:07.516Z,8.50
2018-06-12T04:31:37.229Z,9.20
2018-06-12T04:34:06.998Z,7.10
2018-06-12T04:36:36.645Z,7.33
2018-06-12T04:39:07.798Z,7.43
2018-06-12T04:41:37.603Z,10.47
2018-06-12T04:44:07.312Z,7.33
2018-06-12T04:46:37.000Z,10.50
2018-06-12T04:49:06.632Z,7.40
2018-06-12T04:51:36.384Z,7.33
2018-06-12T04:54:06.153Z,8.63
2018-06-12T04:56:35.744Z,5.03
2018-06-12T04:59:05.633Z,5.47
2018-06-12T05:01:35.376Z,6.80
2018-06-12T05:04:05.090Z,7.93
2018-06-12T05:06:34.806Z,4.70
2018-06-12T05:09:05.743Z,7.20
2018-06-12T05:11:35.537Z,7.33
2018-06-12T05:14:16.260Z,3.73
2018-06-12T05:16:46.852Z,8.57
2018-06-12T05:19:16.434Z,5.33
2018-06-12T05:21:46.171Z,6.43
2018-06-12T05:24:15.857Z,10.90
2018-06-12T05:26:46.296Z,5.93
2018-06-12T05:29:15.973Z,8.87
2018-06-12T05:31:45.834Z,4.67
2018-06-12T05:34:15.643Z,6.40
2018-06-12T05:36:45.452Z,5.70
2018-06-12T05:39:15.161Z,5.40
2018-06-12T05:41:45.033Z,8.90
2018-06-12T05:44:14.689Z,5.63
2018-06-12T05:46:44.429Z,7.23
2018-06-12T05:49:13.959Z,7.80
2018-06-12T05:51:43.586Z,5.90
2018-06-12T05:54:13.249Z,7.70
2018-06-12T05:56:42.932Z,6.63
2018-06-12T05:59:12.621Z,6.83
2018-06-12T06:01:42.408Z,4.87
2018-06-12T06:04:12.063Z,5.97
2018-06-12T06:06:41.847Z,5.00
2018-06-12T06:09:11.433Z,5.30
2018-06-12T06:11:41.094Z,5.30
2018-06-12T06:14:10.861Z,5.23
2018-06-12T06:16:40.598Z,6.90
2018-06-12T06:19:10.403Z,4.00
2018-06-12T06:21:40.024Z,8.00
2018-06-12T06:24:09.718Z,5.53
2018-06-12T06:26:39.421Z,5.70
2018-06-12T06:29:09.051Z,4.13
2018-06-12T06:31:38.682Z,4.47
2018-06-12T06:34:08.118Z,3.60
2018-06-12T06:36:37.553Z,3.70
2018-06-12T06:39:08.308Z,4.77
2018-06-12T06:41:38.238Z,6.47
2018-06-12T06:44:07.644Z,3.30
2018-06-12T06:46:37.095Z,9.30
2018-06-12T06:49:06.986Z,5.67
2018-06-12T06:51:36.083Z,4.87
2018-06-12T06:54:05.901Z,6.23
2018-06-12T06:56:35.553Z,2.93
2018-06-12T06:59:05.346Z,3.70
2018-06-12T07:01:35.132Z,4.70
2018-06-12T07:04:04.773Z,5.87
2018-06-12T07:06:34.557Z,7.47
2018-06-12T07:09:04.755Z,4.30
2018-06-12T07:11:34.417Z,4.47
2018-06-12T07:14:04.165Z,4.20
2018-06-12T07:16:34.005Z,4.37
2018-06-12T07:19:03.844Z,2.40
2018-06-12T07:21:33.530Z,4.60
2018-06-12T07:24:03.281Z,3.23
2018-06-12T07:26:32.973Z,4.60
2018-06-12T07:29:02.756Z,4.20
2018-06-12T07:31:32.012Z,3.47
2018-06-12T07:34:01.826Z,5.62
2018-06-12T07:36:31.511Z,3.92
2018-06-12T07:39:01.347Z,5.47
2018-06-12T07:41:31.105Z,2.42
2018-06-12T07:44:00.762Z,4.78
2018-06-12T07:46:30.441Z,2.80
2018-06-12T07:49:00.137Z,4.25
2018-06-12T07:51:29.779Z,3.10
2018-06-12T07:53:59.549Z,4.42
2018-06-12T07:56:29.407Z,4.72
2018-06-12T07:58:59.172Z,3.02
2018-06-12T08:01:29.912Z,4.23
2018-06-12T08:03:59.669Z,3.98
2018-06-12T08:06:29.435Z,3.70
2018-06-12T08:08:59.198Z,5.85
2018-06-12T08:11:28.861Z,2.33
2018-06-12T08:13:58.566Z,3.95
2018-06-12T08:16:28.121Z,3.47
2018-06-12T08:18:57.881Z,3.95
2018-06-12T08:21:27.638Z,2.45
2018-06-12T08:23:57.469Z,3.52
2018-06-12T08:26:27.221Z,3.17
2018-06-12T08:28:56.865Z,3.80
2018-06-12T08:31:26.739Z,4.95
2018-06-12T08:33:56.494Z,2.67
2018-06-12T08:36:26.295Z,3.90
2018-06-12T08:38:55.913Z,4.50
2018-06-12T08:41:25.595Z,5.30
2018-06-12T08:43:55.285Z,1.95
2018-06-12T08:46:24.990Z,1.98
2018-06-12T08:48:54.760Z,4.58
2018-06-12T08:51:24.468Z,3.80
2018-06-12T08:53:54.179Z,2.55
2018-06-12T08:56:23.976Z,2.12
2018-06-12T08:58:53.579Z,6.00
2018-06-12T09:01:23.384Z,2.77
2018-06-12T09:03:53.006Z,2.50
2018-06-12T09:06:22.624Z,1.97
2018-06-12T09:08:52.386Z,2.20
2018-06-12T09:11:22.033Z,4.10
2018-06-12T09:13:51.832Z,5.50
2018-06-12T09:16:21.512Z,2.40
2018-06-12T09:18:51.140Z,3.20
2018-06-12T09:21:20.932Z,5.77
2018-06-12T09:23:50.690Z,4.73
2018-06-12T09:26:20.456Z,2.85
2018-06-12T09:28:49.516Z,2.05
2018-06-12T09:31:19.205Z,2.22
2018-06-12T09:33:49.168Z,2.75
2018-06-12T09:36:23.861Z,2.15
2018-06-12T09:38:53.757Z,4.72
2018-06-12T09:41:23.369Z,2.95
2018-06-12T09:43:53.236Z,2.30
2018-06-12T09:46:22.880Z,2.15
2018-06-12T09:48:52.469Z,1.60
2018-06-12T09:51:22.208Z,4.47
2018-06-12T09:53:51.887Z,2.27
2018-06-12T09:56:21.675Z,2.02
2018-06-12T09:58:51.438Z,2.52
2018-06-12T10:01:21.833Z,1.80
2018-06-12T10:03:53.224Z,1.80
2018-06-12T10:06:22.921Z,2.60
2018-06-12T10:08:52.636Z,2.40
2018-06-12T10:11:22.492Z,2.63
2018-06-12T10:13:52.256Z,2.47
2018-06-12T10:16:22.123Z,1.92
2018-06-12T10:18:51.831Z,2.50
2018-06-12T10:21:21.548Z,2.07
2018-06-12T10:23:51.103Z,2.63
2018-06-12T10:26:20.888Z,3.93
2018-06-12T10:28:50.673Z,3.80
2018-06-12T10:31:20.535Z,3.67
2018-06-12T10:33:50.398Z,3.47
2018-06-12T10:36:20.158Z,5.50
2018-06-12T10:38:49.840Z,3.10
2018-06-12T10:41:19.638Z,4.23
2018-06-12T10:43:48.681Z,2.80
2018-06-12T10:46:18.273Z,2.67
2018-06-12T10:48:48.154Z,3.27
2018-06-12T10:51:17.196Z,3.90
2018-06-12T10:53:46.804Z,3.30
2018-06-12T10:56:16.592Z,3.37
2018-06-12T10:58:46.271Z,9.77
2018-06-12T11:01:15.251Z,4.30
2018-06-12T11:03:44.921Z,19.30
2018-06-12T11:06:14.636Z,18.20
2018-06-12T11:08:44.395Z,6.70
2018-06-12T11:11:13.948Z,7.37
2018-06-12T11:13:43.724Z,6.73
2018-06-12T11:16:13.503Z,3.20
2018-06-12T11:18:43.157Z,2.87
2018-06-12T11:21:12.737Z,3.03
2018-06-12T11:23:42.485Z,5.33
2018-06-12T11:26:12.252Z,2.97
2018-06-12T11:28:41.409Z,2.70
2018-06-12T11:31:11.188Z,3.83
2018-06-12T11:33:40.849Z,3.63
2018-06-12T11:36:10.528Z,6.60
2018-06-12T11:38:40.278Z,2.60
2018-06-12T11:41:09.933Z,2.60
2018-06-12T11:43:39.656Z,3.10
2018-06-12T11:46:09.445Z,3.67
2018-06-12T11:48:39.036Z,3.50
2018-06-12T11:51:08.690Z,4.10
2018-06-12T11:53:38.552Z,4.97
2018-06-12T11:56:08.315Z,3.87
2018-06-12T11:58:38.084Z,3.80
2018-06-12T12:01:07.847Z,3.80
2018-06-12T12:03:37.579Z,2.67
2018-06-12T12:06:07.408Z,3.17
2018-06-12T12:08:36.482Z,3.57
2018-06-12T12:11:06.244Z,3.10
2018-06-12T12:13:35.925Z,5.27
2018-06-12T12:16:05.685Z,3.40
2018-06-12T12:18:35.448Z,3.83
2018-06-12T12:21:05.215Z,3.80
2018-06-12T12:23:35.117Z,2.83
2018-06-12T12:26:05.028Z,2.77
2018-06-12T12:28:34.727Z,2.50
2018-06-12T12:31:04.575Z,2.37
2018-06-12T12:33:34.344Z,3.33
2018-06-12T12:36:04.281Z,2.30
2018-06-12T12:38:34.077Z,2.67
2018-06-12T12:41:03.692Z,4.63
2018-06-12T12:43:33.345Z,2.27
2018-06-12T12:46:03.184Z,3.90
2018-06-12T12:48:32.942Z,3.80
2018-06-12T12:51:02.684Z,3.10
2018-06-12T12:53:32.304Z,4.27
2018-06-12T12:56:01.971Z,2.20
2018-06-12T12:58:31.724Z,2.57
2018-06-12T13:01:01.381Z,3.40
2018-06-12T13:03:31.254Z,3.30
2018-06-12T13:06:01.005Z,4.43
2018-06-12T13:08:30.913Z,3.70
2018-06-12T13:11:00.633Z,4.70
2018-06-12T13:13:30.428Z,2.97
2018-06-12T13:16:00.186Z,2.80
2018-06-12T13:18:29.826Z,2.87
2018-06-12T13:20:59.524Z,4.33
2018-06-12T13:23:28.584Z,2.87
2018-06-12T13:25:58.277Z,3.53
2018-06-12T13:28:28.041Z,2.40
2018-06-12T13:30:57.798Z,5.33
2018-06-12T13:33:27.675Z,3.27
2018-06-12T13:35:57.314Z,3.30
2018-06-12T13:38:27.096Z,3.30
2018-06-12T13:40:56.736Z,4.70
2018-06-12T13:43:26.424Z,4.20
2018-06-12T13:45:56.118Z,4.60
2018-06-12T13:48:25.263Z,3.70
2018-06-12T13:50:54.860Z,3.50
2018-06-12T13:53:24.448Z,3.60
2018-06-12T13:55:54.079Z,4.80
2018-06-12T13:58:23.797Z,4.63
2018-06-12T14:00:53.545Z,5.50
2018-06-12T14:03:23.204Z,3.90
2018-06-12T14:05:52.896Z,3.50
2018-06-12T14:08:22.576Z,5.23
2018-06-12T14:10:52.345Z,3.83
2018-06-12T14:13:22.246Z,6.13
2018-06-12T14:15:51.963Z,7.63
2018-06-12T14:18:21.541Z,6.17
2018-06-12T14:20:51.230Z,7.37
2018-06-12T14:23:20.975Z,4.50
2018-06-12T14:25:50.855Z,5.33
2018-06-12T14:28:20.598Z,4.20
2018-06-12T14:30:50.312Z,5.80
2018-06-12T14:33:20.028Z,4.60
2018-06-12T14:35:49.512Z,6.10
2018-06-12T14:38:19.192Z,5.77
2018-06-12T14:40:48.955Z,6.47
2018-06-12T14:43:18.725Z,7.13
2018-06-12T14:45:48.161Z,7.57
2018-06-12T14:48:17.853Z,6.10
2018-06-12T14:50:47.548Z,7.40
2018-06-12T14:53:17.301Z,8.23
2018-06-12T14:55:47.044Z,10.07
2018-06-12T14:58:16.716Z,7.13
2018-06-12T15:00:46.509Z,4.47
2018-06-12T15:03:16.237Z,6.70
2018-06-12T15:05:46.251Z,5.70
2018-06-12T15:08:15.965Z,5.00
2018-06-12T15:10:45.924Z,6.13
2018-06-12T15:13:15.580Z,6.70
2018-06-12T15:15:45.277Z,6.77
2018-06-12T15:18:14.860Z,5.40
2018-06-12T15:20:44.611Z,6.30
2018-06-12T15:23:14.389Z,12.17
2018-06-12T15:25:44.132Z,6.50
2018-06-12T15:28:13.757Z,6.40
2018-06-12T15:30:43.437Z,8.80
2018-06-12T15:33:13.063Z,6.13
2018-06-12T15:35:42.861Z,9.40
2018-06-12T15:38:12.486Z,7.40
2018-06-12T15:40:42.089Z,6.77
2018-06-12T15:43:11.979Z,13.80
2018-06-12T15:45:41.728Z,8.00
2018-06-12T15:48:11.581Z,6.80
2018-06-12T15:50:41.325Z,7.73
2018-06-12T15:53:10.713Z,7.03
2018-06-12T15:55:40.095Z,7.60
2018-06-12T15:58:09.651Z,7.17
2018-06-12T16:00:39.172Z,8.23
2018-06-12T16:03:09.624Z,7.90
2018-06-12T16:05:39.438Z,7.33
2018-06-12T16:08:09.946Z,7.50
2018-06-12T16:10:40.821Z,8.13
2018-06-12T16:13:11.493Z,11.00
2018-06-12T16:15:42.888Z,5.80
2018-06-12T16:18:12.460Z,10.30
2018-06-12T16:20:42.016Z,8.70
2018-06-12T16:23:13.401Z,6.30
2018-06-12T16:25:43.226Z,6.73
2018-06-12T16:28:13.316Z,5.93
2018-06-12T16:30:42.764Z,6.47
2018-06-12T16:33:15.484Z,7.20
2018-06-12T16:35:45.293Z,6.47
2018-06-12T16:38:15.024Z,7.40
2018-06-12T16:40:44.397Z,6.33
2018-06-12T16:43:13.833Z,7.43
2018-06-12T16:45:43.206Z,6.53
2018-06-12T16:48:12.565Z,5.80
2018-06-12T16:50:41.936Z,6.60
2018-06-12T16:53:11.369Z,4.83
2018-06-12T16:55:40.769Z,6.10
2018-06-12T16:58:10.284Z,6.13
2018-06-12T17:00:39.678Z,5.63
2018-06-12T17:03:09.068Z,6.47
2018-06-12T17:05:38.508Z,6.67
2018-06-12T17:08:08.292Z,7.13
2018-06-12T17:10:37.756Z,7.00
2018-06-12T17:13:07.621Z,6.40
2018-06-12T17:15:37.013Z,6.57
2018-06-12T17:18:06.830Z,6.83
2018-06-12T17:20:36.205Z,8.47
2018-06-12T17:23:05.633Z,16.30
2018-06-12T17:25:35.297Z,7.57
2018-06-12T17:28:05.485Z,8.60
2018-06-12T17:30:34.884Z,10.40
2018-06-12T17:33:03.734Z,7.17
2018-06-12T17:35:33.107Z,6.80
2018-06-12T17:38:02.605Z,7.97
2018-06-12T17:40:31.971Z,7.47
2018-06-12T17:43:01.373Z,6.97
2018-06-12T17:45:30.753Z,6.10
2018-06-12T17:48:00.144Z,8.47
2018-06-12T17:50:29.538Z,6.77
2018-06-12T17:52:58.946Z,12.23
2018-06-12T17:55:28.673Z,9.80
2018-06-12T17:57:58.068Z,6.83
2018-06-12T18:00:27.424Z,6.80
2018-06-12T18:02:56.828Z,5.63
2018-06-12T18:05:26.214Z,8.10
2018-06-12T18:07:55.589Z,11.00
2018-06-12T18:10:24.977Z,6.47
2018-06-12T18:12:54.375Z,5.83
2018-06-12T18:15:23.748Z,10.50
2018-06-12T18:17:53.161Z,11.27
2018-06-12T18:20:22.753Z,12.43
2018-06-12T18:22:52.164Z,8.53
2018-06-12T18:25:21.548Z,8.97
2018-06-12T18:27:51.272Z,41.43
2018-06-12T18:30:21.025Z,15.97
2018-06-12T18:32:50.908Z,16.33
2018-06-12T18:35:26.194Z,12.07
2018-06-12T18:37:55.784Z,14.63
2018-06-12T18:40:32.281Z,12.20
2018-06-12T18:43:09.157Z,9.87
2018-06-12T18:45:45.092Z,11.40
2018-06-12T18:48:14.884Z,11.00
2018-06-12T18:50:44.556Z,13.63
2018-06-12T18:53:14.293Z,8.87
2018-06-12T18:55:44.048Z,14.57
2018-06-12T18:58:13.724Z,7.50
2018-06-12T19:00:43.409Z,12.93
2018-06-12T19:03:13.144Z,19.87
2018-06-12T19:05:43.027Z,13.30
2018-06-12T19:08:12.697Z,9.80
2018-06-12T19:10:42.305Z,9.20
2018-06-12T19:13:12.071Z,13.73
2018-06-12T19:15:41.438Z,14.30
2018-06-12T19:18:10.813Z,12.70
2018-06-12T19:20:40.212Z,9.93
2018-06-12T19:23:09.601Z,9.50
2018-06-12T19:25:39.091Z,9.53
2018-06-12T19:28:09.772Z,8.20
2018-06-12T19:30:39.508Z,18.07
2018-06-12T19:33:09.125Z,16.70
2018-06-12T19:35:38.752Z,12.60
2018-06-12T19:38:08.419Z,15.30
2018-06-12T19:40:37.789Z,10.27
2018-06-12T19:43:07.177Z,25.60
2018-06-12T19:45:36.572Z,17.80
2018-06-12T19:48:06.167Z,12.73
2018-06-12T19:50:35.532Z,12.53
2018-06-12T19:53:06.283Z,12.43
2018-06-12T19:55:35.689Z,13.10
2018-06-12T19:58:06.097Z,10.97
2018-06-12T20:00:36.439Z,11.77
2018-06-12T20:03:06.868Z,8.47
2018-06-12T20:05:36.241Z,9.40
2018-06-12T20:08:07.654Z,10.23
2018-06-12T20:10:37.052Z,13.40
2018-06-12T20:13:07.375Z,9.93
2018-06-12T20:15:37.921Z,14.63
2018-06-12T20:18:07.960Z,16.47
2018-06-12T20:20:38.413Z,12.67
2018-06-12T20:23:08.671Z,11.50
2018-06-12T20:25:38.877Z,9.10
2018-06-12T20:28:08.822Z,10.53
2018-06-12T20:30:39.105Z,7.30
2018-06-12T20:33:10.599Z,13.07
2018-06-12T20:35:41.439Z,11.37
2018-06-12T20:38:12.668Z,9.10
2018-06-12T20:40:42.735Z,9.57
2018-06-12T20:43:14.256Z,7.80
2018-06-12T20:45:45.630Z,12.53
2018-06-12T20:48:15.530Z,8.50
2018-06-12T20:50:45.444Z,8.23
2018-06-12T20:53:16.098Z,7.73
2018-06-12T20:55:47.568Z,8.87
2018-06-12T20:58:17.825Z,6.47
2018-06-12T21:00:48.391Z,8.57
2018-06-12T21:03:18.058Z,12.00
2018-06-12T21:05:48.209Z,5.87
2018-06-12T21:08:18.578Z,7.70
2018-06-12T21:10:48.073Z,6.00
2018-06-12T21:13:20.574Z,6.60
2018-06-12T21:15:51.283Z,8.97
2018-06-12T21:18:22.192Z,11.20
2018-06-12T21:20:52.145Z,7.30
2018-06-12T21:23:21.546Z,10.37
2018-06-12T21:25:51.729Z,9.10
2018-06-12T21:28:22.119Z,9.67
2018-06-12T21:30:52.393Z,12.03
2018-06-12T21:33:22.080Z,10.87
2018-06-12T21:35:52.202Z,7.10
2018-06-12T21:38:21.604Z,7.50
2018-06-12T21:41:00.809Z,10.23
2018-06-12T21:43:32.625Z,5.27
2018-06-12T21:46:03.136Z,8.90
2018-06-12T21:48:33.485Z,5.90
2018-06-12T21:51:03.620Z,7.50
2018-06-12T21:53:34.509Z,11.87
2018-06-12T21:56:04.083Z,6.60
2018-06-12T21:58:33.821Z,5.33
2018-06-12T22:01:03.806Z,5.80
2018-06-12T22:03:33.943Z,5.30
2018-06-12T22:06:04.152Z,7.13
2018-06-12T22:08:34.486Z,12.13
2018-06-12T22:11:04.068Z,3.60
2018-06-12T22:13:34.525Z,6.73
2018-06-12T22:16:04.146Z,3.57
2018-06-12T22:18:34.020Z,5.67
2018-06-12T22:21:04.162Z,8.87
2018-06-12T22:23:34.789Z,6.10
2018-06-12T22:26:04.152Z,3.60
2018-06-12T22:28:33.633Z,6.40
2018-06-12T22:31:03.505Z,7.07
2018-06-12T22:33:33.657Z,6.73
2018-06-12T22:36:03.889Z,7.80
2018-06-12T22:38:33.685Z,5.90
2018-06-12T22:41:03.706Z,5.40
2018-06-12T22:43:33.770Z,6.20
2018-06-12T22:46:04.286Z,8.30
2018-06-12T22:48:34.197Z,8.97
2018-06-12T22:51:03.981Z,11.83
2018-06-12T22:53:34.545Z,6.83
2018-06-12T22:56:04.156Z,5.80
2018-06-12T22:58:34.065Z,4.93
2018-06-12T23:01:04.049Z,5.90
2018-06-12T23:03:33.428Z,4.93
2018-06-12T23:06:02.800Z,6.47
2018-06-12T23:08:32.171Z,11.27
2018-06-12T23:11:01.787Z,5.10
2018-06-12T23:13:31.557Z,4.43
2018-06-12T23:16:01.257Z,6.37
2018-06-12T23:18:30.857Z,3.07
2018-06-12T23:22:06.877Z,8.13
2018-06-12T23:24:36.505Z,5.03
2018-06-12T23:27:06.160Z,7.40
2018-06-12T23:29:35.867Z,4.47
2018-06-12T23:32:05.453Z,5.50
2018-06-12T23:34:35.055Z,6.93
2018-06-12T23:37:04.683Z,5.07
2018-06-12T23:39:34.403Z,6.70
2018-06-12T23:42:04.122Z,7.90
2018-06-12T23:44:33.892Z,7.10
2018-06-12T23:47:03.588Z,5.53
2018-06-12T23:49:33.229Z,5.83
2018-06-12T23:52:02.895Z,6.87
2018-06-12T23:54:32.659Z,8.57
2018-06-12T23:57:02.344Z,8.40
2018-06-12T23:59:31.965Z,3.97
